sensor_id;sensor_type;location;lat;lon;timestamp;P1;durP1;ratioP1;P2;durP2;ratioP2
30337;SDS011;17143;51.888;5.408;2022-08-11T00:12:49;3.00;;;2.00;;
30337;SDS011;17143;51.888;5.408;2022-08-11T00:27:52;1.90;;;1.70;;
30337;SDS011;17143;51.888;5.408;2022-08-11T00:42:57;3.87;;;1.77;;
30337;SDS011;17143;51.888;5.408;2022-08-11T01:13:59;2.20;;;2.00;;
30337;SDS011;17143;51.888;5.408;2022-08-11T01:29:49;4.70;;;2.30;;
30337;SDS011;17143;51.888;5.408;2022-08-11T01:45:12;3.63;;;2.33;;
30337;SDS011;17143;51.888;5.408;2022-08-11T02:00:25;5.00;;;2.40;;
30337;SDS011;17143;51.888;5.408;2022-08-11T02:15:33;3.53;;;2.33;;
30337;SDS011;17143;51.888;5.408;2022-08-11T02:30:40;3.30;;;2.20;;
30337;SDS011;17143;51.888;5.408;2022-08-11T02:45:55;3.57;;;2.37;;
30337;SDS011;17143;51.888;5.408;2022-08-11T03:01:11;2.90;;;2.27;;
30337;SDS011;17143;51.888;5.408;2022-08-11T03:16:18;6.27;;;2.53;;
30337;SDS011;17143;51.888;5.408;2022-08-11T03:31:27;5.23;;;2.30;;
30337;SDS011;17143;51.888;5.408;2022-08-11T03:46:35;9.50;;;2.90;;
30337;SDS011;17143;51.888;5.408;2022-08-11T04:02:07;2.77;;;1.83;;
30337;SDS011;17143;51.888;5.408;2022-08-11T04:17:25;4.80;;;2.53;;
30337;SDS011;17143;51.888;5.408;2022-08-11T04:48:38;3.60;;;2.60;;
30337;SDS011;17143;51.888;5.408;2022-08-11T05:04:06;4.23;;;2.90;;
30337;SDS011;17143;51.888;5.408;2022-08-11T05:19:18;3.63;;;3.10;;
30337;SDS011;17143;51.888;5.408;2022-08-11T05:34:22;4.70;;;2.83;;
30337;SDS011;17143;51.888;5.408;2022-08-11T05:49:28;5.23;;;2.60;;
30337;SDS011;17143;51.888;5.408;2022-08-11T06:04:31;4.60;;;2.80;;
30337;SDS011;17143;51.888;5.408;2022-08-11T06:19:35;5.67;;;2.70;;
30337;SDS011;17143;51.888;5.408;2022-08-11T06:34:49;6.70;;;2.73;;
30337;SDS011;17143;51.888;5.408;2022-08-11T06:49:58;4.97;;;2.80;;
30337;SDS011;17143;51.888;5.408;2022-08-11T07:05:02;3.40;;;2.50;;
30337;SDS011;17143;51.888;5.408;2022-08-11T07:20:10;4.40;;;2.70;;
30337;SDS011;17143;51.888;5.408;2022-08-11T07:35:15;5.87;;;2.70;;
30337;SDS011;17143;51.888;5.408;2022-08-11T07:50:21;3.53;;;2.40;;
30337;SDS011;17143;51.888;5.408;2022-08-11T08:05:24;3.43;;;2.30;;
30337;SDS011;17143;51.888;5.408;2022-08-11T08:20:27;3.70;;;2.03;;
30337;SDS011;17143;51.888;5.408;2022-08-11T08:35:31;2.70;;;1.77;;
30337;SDS011;17143;51.888;5.408;2022-08-11T08:50:37;4.37;;;2.00;;
30337;SDS011;17143;51.888;5.408;2022-08-11T09:05:45;5.73;;;2.33;;
30337;SDS011;17143;51.888;5.408;2022-08-11T09:20:47;3.93;;;2.50;;
30337;SDS011;17143;51.888;5.408;2022-08-11T09:35:50;3.23;;;1.80;;
30337;SDS011;17143;51.888;5.408;2022-08-11T09:50:53;5.87;;;2.20;;
30337;SDS011;17143;51.888;5.408;2022-08-11T10:05:57;3.27;;;2.33;;
30337;SDS011;17143;51.888;5.408;2022-08-11T10:21:02;4.63;;;1.87;;
30337;SDS011;17143;51.888;5.408;2022-08-11T10:36:09;5.37;;;2.50;;
30337;SDS011;17143;51.888;5.408;2022-08-11T10:51:11;6.23;;;2.00;;
30337;SDS011;17143;51.888;5.408;2022-08-11T11:06:20;3.97;;;1.97;;
30337;SDS011;17143;51.888;5.408;2022-08-11T11:21:24;3.43;;;2.10;;
30337;SDS011;17143;51.888;5.408;2022-08-11T11:36:27;2.80;;;2.10;;
30337;SDS011;17143;51.888;5.408;2022-08-11T11:51:38;5.33;;;2.30;;
30337;SDS011;17143;51.888;5.408;2022-08-11T12:06:41;3.77;;;2.30;;
30337;SDS011;17143;51.888;5.408;2022-08-11T12:21:43;6.10;;;2.67;;
30337;SDS011;17143;51.888;5.408;2022-08-11T12:36:47;3.43;;;1.90;;
30337;SDS011;17143;51.888;5.408;2022-08-11T12:51:52;2.33;;;2.10;;
30337;SDS011;17143;51.888;5.408;2022-08-11T13:06:55;4.07;;;2.10;;
30337;SDS011;17143;51.888;5.408;2022-08-11T13:21:57;4.63;;;1.63;;
30337;SDS011;17143;51.888;5.408;2022-08-11T13:37:00;6.40;;;1.80;;
30337;SDS011;17143;51.888;5.408;2022-08-11T13:52:03;3.13;;;1.70;;
30337;SDS011;17143;51.888;5.408;2022-08-11T14:07:07;3.37;;;2.07;;
30337;SDS011;17143;51.888;5.408;2022-08-11T14:22:10;3.73;;;2.00;;
30337;SDS011;17143;51.888;5.408;2022-08-11T14:37:18;2.33;;;1.83;;
30337;SDS011;17143;51.888;5.408;2022-08-11T14:52:22;7.23;;;1.60;;
30337;SDS011;17143;51.888;5.408;2022-08-11T15:07:25;4.43;;;1.70;;
30337;SDS011;17143;51.888;5.408;2022-08-11T15:22:27;3.23;;;1.70;;
30337;SDS011;17143;51.888;5.408;2022-08-11T15:37:29;3.13;;;1.47;;
30337;SDS011;17143;51.888;5.408;2022-08-11T15:52:33;2.17;;;1.70;;
30337;SDS011;17143;51.888;5.408;2022-08-11T16:07:40;2.00;;;1.77;;
30337;SDS011;17143;51.888;5.408;2022-08-11T16:22:45;3.73;;;1.70;;
30337;SDS011;17143;51.888;5.408;2022-08-11T16:37:50;3.80;;;1.63;;
30337;SDS011;17143;51.888;5.408;2022-08-11T16:52:53;5.67;;;2.00;;
30337;SDS011;17143;51.888;5.408;2022-08-11T17:07:56;3.50;;;1.47;;
30337;SDS011;17143;51.888;5.408;2022-08-11T17:23:01;4.37;;;1.53;;
30337;SDS011;17143;51.888;5.408;2022-08-11T17:38:06;2.73;;;1.80;;
30337;SDS011;17143;51.888;5.408;2022-08-11T17:53:11;2.80;;;1.83;;
30337;SDS011;17143;51.888;5.408;2022-08-11T18:08:15;1.73;;;1.50;;
30337;SDS011;17143;51.888;5.408;2022-08-11T18:23:19;12.77;;;2.30;;
30337;SDS011;17143;51.888;5.408;2022-08-11T18:38:24;2.90;;;1.80;;
30337;SDS011;17143;51.888;5.408;2022-08-11T18:53:29;6.67;;;2.23;;
30337;SDS011;17143;51.888;5.408;2022-08-11T19:08:36;3.60;;;2.10;;
30337;SDS011;17143;51.888;5.408;2022-08-11T19:23:42;2.50;;;1.67;;
30337;SDS011;17143;51.888;5.408;2022-08-11T19:38:45;2.40;;;1.87;;
30337;SDS011;17143;51.888;5.408;2022-08-11T19:53:50;5.50;;;2.10;;
30337;SDS011;17143;51.888;5.408;2022-08-11T20:08:55;3.83;;;2.30;;
30337;SDS011;17143;51.888;5.408;2022-08-11T20:24:00;4.77;;;2.37;;
30337;SDS011;17143;51.888;5.408;2022-08-11T20:39:03;5.20;;;2.10;;
30337;SDS011;17143;51.888;5.408;2022-08-11T20:54:06;2.40;;;1.70;;
30337;SDS011;17143;51.888;5.408;2022-08-11T21:09:08;5.07;;;1.90;;
30337;SDS011;17143;51.888;5.408;2022-08-11T21:24:12;7.97;;;2.10;;
30337;SDS011;17143;51.888;5.408;2022-08-11T21:39:18;4.83;;;1.83;;
30337;SDS011;17143;51.888;5.408;2022-08-11T21:54:23;3.33;;;1.97;;
30337;SDS011;17143;51.888;5.408;2022-08-11T22:09:25;6.93;;;2.17;;
30337;SDS011;17143;51.888;5.408;2022-08-11T22:24:28;2.10;;;1.50;;
30337;SDS011;17143;51.888;5.408;2022-08-11T22:39:32;2.70;;;1.80;;
30337;SDS011;17143;51.888;5.408;2022-08-11T22:54:36;3.67;;;1.70;;
30337;SDS011;17143;51.888;5.408;2022-08-11T23:09:39;2.90;;;1.60;;
30337;SDS011;17143;51.888;5.408;2022-08-11T23:24:41;3.40;;;1.70;;
30337;SDS011;17143;51.888;5.408;2022-08-11T23:39:43;4.00;;;2.03;;
30337;SDS011;17143;51.888;5.408;2022-08-11T23:54:45;2.63;;;1.80;;
